sensor_id;sensor_type;location;lat;lon;timestamp;P1;durP1;ratioP1;P2;durP2;ratioP2
39918;SDS011;25589;51.552;13.424;2022-12-07T00:02:01;14.77;;;8.55;;
39918;SDS011;25589;51.552;13.424;2022-12-07T00:04:26;14.25;;;8.38;;
39918;SDS011;25589;51.552;13.424;2022-12-07T00:06:52;13.48;;;8.05;;
39918;SDS011;25589;51.552;13.424;2022-12-07T00:09:18;13.40;;;8.35;;
39918;SDS011;25589;51.552;13.424;2022-12-07T00:11:44;15.25;;;8.85;;
39918;SDS011;25589;51.552;13.424;2022-12-07T00:14:14;13.05;;;8.27;;
39918;SDS011;25589;51.552;13.424;2022-12-07T00:16:41;16.23;;;8.95;;
39918;SDS011;25589;51.552;13.424;2022-12-07T00:19:09;14.77;;;9.02;;
39918;SDS011;25589;51.552;13.424;2022-12-07T00:21:36;15.52;;;9.38;;
39918;SDS011;25589;51.552;13.424;2022-12-07T00:24:02;13.90;;;8.60;;
39918;SDS011;25589;51.552;13.424;2022-12-07T00:26:30;16.30;;;9.27;;
39918;SDS011;25589;51.552;13.424;2022-12-07T00:29:03;16.80;;;9.40;;
39918;SDS011;25589;51.552;13.424;2022-12-07T00:31:31;13.93;;;9.02;;
39918;SDS011;25589;51.552;13.424;2022-12-07T00:33:58;15.20;;;9.32;;
39918;SDS011;25589;51.552;13.424;2022-12-07T00:36:24;16.92;;;9.65;;
39918;SDS011;25589;51.552;13.424;2022-12-07T00:38:50;17.92;;;10.90;;
39918;SDS011;25589;51.552;13.424;2022-12-07T00:41:17;15.07;;;9.25;;
39918;SDS011;25589;51.552;13.424;2022-12-07T00:43:44;15.73;;;9.52;;
39918;SDS011;25589;51.552;13.424;2022-12-07T00:46:11;16.65;;;9.43;;
39918;SDS011;25589;51.552;13.424;2022-12-07T00:48:38;17.40;;;10.02;;
39918;SDS011;25589;51.552;13.424;2022-12-07T00:51:04;14.35;;;8.93;;
39918;SDS011;25589;51.552;13.424;2022-12-07T00:53:30;15.75;;;9.25;;
39918;SDS011;25589;51.552;13.424;2022-12-07T00:55:58;14.60;;;8.77;;
39918;SDS011;25589;51.552;13.424;2022-12-07T00:58:29;14.20;;;8.07;;
39918;SDS011;25589;51.552;13.424;2022-12-07T01:00:54;13.98;;;8.57;;
39918;SDS011;25589;51.552;13.424;2022-12-07T01:03:26;12.70;;;8.13;;
39918;SDS011;25589;51.552;13.424;2022-12-07T01:05:53;14.98;;;8.15;;
39918;SDS011;25589;51.552;13.424;2022-12-07T01:08:19;12.57;;;7.75;;
39918;SDS011;25589;51.552;13.424;2022-12-07T01:10:46;11.88;;;7.03;;
39918;SDS011;25589;51.552;13.424;2022-12-07T01:13:12;14.45;;;8.32;;
39918;SDS011;25589;51.552;13.424;2022-12-07T01:15:41;14.07;;;7.95;;
39918;SDS011;25589;51.552;13.424;2022-12-07T01:18:07;14.60;;;8.88;;
39918;SDS011;25589;51.552;13.424;2022-12-07T01:20:33;13.32;;;7.70;;
39918;SDS011;25589;51.552;13.424;2022-12-07T01:22:59;11.55;;;6.78;;
39918;SDS011;25589;51.552;13.424;2022-12-07T01:25:24;12.60;;;7.65;;
39918;SDS011;25589;51.552;13.424;2022-12-07T01:27:50;12.13;;;7.07;;
39918;SDS011;25589;51.552;13.424;2022-12-07T01:30:15;12.13;;;6.75;;
39918;SDS011;25589;51.552;13.424;2022-12-07T01:32:41;11.77;;;6.97;;
39918;SDS011;25589;51.552;13.424;2022-12-07T01:35:07;12.73;;;6.50;;
39918;SDS011;25589;51.552;13.424;2022-12-07T01:37:36;10.93;;;6.43;;
39918;SDS011;25589;51.552;13.424;2022-12-07T01:40:04;12.05;;;6.68;;
39918;SDS011;25589;51.552;13.424;2022-12-07T01:42:31;11.25;;;6.03;;
39918;SDS011;25589;51.552;13.424;2022-12-07T01:45:43;10.05;;;5.80;;
39918;SDS011;25589;51.552;13.424;2022-12-07T01:47:45;10.07;;;5.85;;
39918;SDS011;25589;51.552;13.424;2022-12-07T01:50:13;9.93;;;6.03;;
39918;SDS011;25589;51.552;13.424;2022-12-07T01:52:39;8.43;;;5.57;;
39918;SDS011;25589;51.552;13.424;2022-12-07T01:55:08;11.50;;;6.78;;
39918;SDS011;25589;51.552;13.424;2022-12-07T01:57:38;12.15;;;6.75;;
39918;SDS011;25589;51.552;13.424;2022-12-07T02:00:08;11.80;;;6.80;;
39918;SDS011;25589;51.552;13.424;2022-12-07T02:02:41;11.13;;;6.40;;
39918;SDS011;25589;51.552;13.424;2022-12-07T02:05:27;13.05;;;7.18;;
39918;SDS011;25589;51.552;13.424;2022-12-07T02:07:54;11.88;;;6.97;;
39918;SDS011;25589;51.552;13.424;2022-12-07T02:10:23;11.98;;;7.15;;
39918;SDS011;25589;51.552;13.424;2022-12-07T02:12:55;11.95;;;7.07;;
39918;SDS011;25589;51.552;13.424;2022-12-07T02:21:28;13.70;;;7.07;;
39918;SDS011;25589;51.552;13.424;2022-12-07T02:29:47;13.73;;;8.80;;
39918;SDS011;25589;51.552;13.424;2022-12-07T02:32:30;13.77;;;8.60;;
39918;SDS011;25589;51.552;13.424;2022-12-07T02:35:06;15.88;;;8.85;;
39918;SDS011;25589;51.552;13.424;2022-12-07T02:40:13;16.55;;;9.18;;
39918;SDS011;25589;51.552;13.424;2022-12-07T02:42:46;17.35;;;9.48;;
39918;SDS011;25589;51.552;13.424;2022-12-07T02:45:17;18.45;;;10.57;;
39918;SDS011;25589;51.552;13.424;2022-12-07T02:47:46;18.13;;;10.20;;
39918;SDS011;25589;51.552;13.424;2022-12-07T02:50:17;20.73;;;10.63;;
39918;SDS011;25589;51.552;13.424;2022-12-07T02:52:44;19.83;;;10.63;;
39918;SDS011;25589;51.552;13.424;2022-12-07T02:55:10;20.20;;;10.48;;
39918;SDS011;25589;51.552;13.424;2022-12-07T03:00:14;20.25;;;10.90;;
39918;SDS011;25589;51.552;13.424;2022-12-07T03:02:46;21.05;;;10.85;;
39918;SDS011;25589;51.552;13.424;2022-12-07T03:05:37;21.02;;;10.75;;
39918;SDS011;25589;51.552;13.424;2022-12-07T03:08:38;18.55;;;10.60;;
39918;SDS011;25589;51.552;13.424;2022-12-07T03:11:26;20.27;;;10.50;;
39918;SDS011;25589;51.552;13.424;2022-12-07T03:14:10;21.70;;;11.20;;
39918;SDS011;25589;51.552;13.424;2022-12-07T03:19:17;20.88;;;10.68;;
39918;SDS011;25589;51.552;13.424;2022-12-07T03:21:47;20.20;;;10.82;;
39918;SDS011;25589;51.552;13.424;2022-12-07T03:24:19;20.30;;;10.98;;
39918;SDS011;25589;51.552;13.424;2022-12-07T03:26:51;21.33;;;12.15;;
39918;SDS011;25589;51.552;13.424;2022-12-07T03:29:32;49.42;;;24.58;;
39918;SDS011;25589;51.552;13.424;2022-12-07T03:32:02;19.60;;;11.30;;
39918;SDS011;25589;51.552;13.424;2022-12-07T03:37:07;18.08;;;9.82;;
39918;SDS011;25589;51.552;13.424;2022-12-07T03:39:51;18.52;;;10.15;;
39918;SDS011;25589;51.552;13.424;2022-12-07T03:42:27;18.48;;;10.85;;
39918;SDS011;25589;51.552;13.424;2022-12-07T03:44:53;16.65;;;10.23;;
39918;SDS011;25589;51.552;13.424;2022-12-07T03:47:37;18.67;;;10.05;;
39918;SDS011;25589;51.552;13.424;2022-12-07T03:50:22;17.40;;;10.35;;
39918;SDS011;25589;51.552;13.424;2022-12-07T03:52:58;18.38;;;10.43;;
39918;SDS011;25589;51.552;13.424;2022-12-07T03:55:32;20.75;;;11.40;;
39918;SDS011;25589;51.552;13.424;2022-12-07T03:58:05;17.17;;;10.20;;
39918;SDS011;25589;51.552;13.424;2022-12-07T04:00:35;15.60;;;9.30;;
39918;SDS011;25589;51.552;13.424;2022-12-07T04:03:01;20.38;;;10.88;;
39918;SDS011;25589;51.552;13.424;2022-12-07T04:05:27;21.35;;;10.23;;
39918;SDS011;25589;51.552;13.424;2022-12-07T04:07:53;16.83;;;10.05;;
39918;SDS011;25589;51.552;13.424;2022-12-07T04:10:19;16.92;;;10.38;;
39918;SDS011;25589;51.552;13.424;2022-12-07T04:12:44;16.38;;;9.50;;
39918;SDS011;25589;51.552;13.424;2022-12-07T04:15:10;17.63;;;10.65;;
39918;SDS011;25589;51.552;13.424;2022-12-07T04:17:36;16.02;;;9.45;;
39918;SDS011;25589;51.552;13.424;2022-12-07T04:20:02;16.15;;;10.13;;
39918;SDS011;25589;51.552;13.424;2022-12-07T04:22:28;17.33;;;9.57;;
39918;SDS011;25589;51.552;13.424;2022-12-07T04:24:54;17.67;;;10.40;;
39918;SDS011;25589;51.552;13.424;2022-12-07T04:27:19;17.85;;;10.27;;
39918;SDS011;25589;51.552;13.424;2022-12-07T04:29:45;17.38;;;9.82;;
39918;SDS011;25589;51.552;13.424;2022-12-07T04:32:11;16.58;;;9.48;;
39918;SDS011;25589;51.552;13.424;2022-12-07T04:34:36;16.02;;;8.98;;
39918;SDS011;25589;51.552;13.424;2022-12-07T04:37:02;16.35;;;9.80;;
39918;SDS011;25589;51.552;13.424;2022-12-07T04:39:28;17.25;;;9.48;;
39918;SDS011;25589;51.552;13.424;2022-12-07T04:41:55;16.17;;;9.77;;
39918;SDS011;25589;51.552;13.424;2022-12-07T04:44:22;16.20;;;9.75;;
39918;SDS011;25589;51.552;13.424;2022-12-07T04:46:49;16.80;;;9.77;;
39918;SDS011;25589;51.552;13.424;2022-12-07T04:49:15;17.92;;;9.23;;
39918;SDS011;25589;51.552;13.424;2022-12-07T04:51:42;17.55;;;10.18;;
39918;SDS011;25589;51.552;13.424;2022-12-07T04:54:07;19.60;;;9.95;;
39918;SDS011;25589;51.552;13.424;2022-12-07T04:56:33;17.05;;;9.82;;
39918;SDS011;25589;51.552;13.424;2022-12-07T04:59:00;20.48;;;10.82;;
39918;SDS011;25589;51.552;13.424;2022-12-07T05:01:25;15.88;;;9.05;;
39918;SDS011;25589;51.552;13.424;2022-12-07T05:03:51;16.17;;;9.20;;
39918;SDS011;25589;51.552;13.424;2022-12-07T05:06:17;18.00;;;9.75;;
39918;SDS011;25589;51.552;13.424;2022-12-07T05:08:43;15.65;;;9.88;;
39918;SDS011;25589;51.552;13.424;2022-12-07T05:11:09;15.57;;;9.68;;
39918;SDS011;25589;51.552;13.424;2022-12-07T05:13:55;16.52;;;9.63;;
39918;SDS011;25589;51.552;13.424;2022-12-07T05:16:20;15.07;;;8.85;;
39918;SDS011;25589;51.552;13.424;2022-12-07T05:18:46;21.98;;;10.75;;
39918;SDS011;25589;51.552;13.424;2022-12-07T05:21:11;18.55;;;10.32;;
39918;SDS011;25589;51.552;13.424;2022-12-07T05:23:37;16.38;;;9.52;;
39918;SDS011;25589;51.552;13.424;2022-12-07T05:26:02;17.58;;;9.63;;
39918;SDS011;25589;51.552;13.424;2022-12-07T05:28:28;17.42;;;9.65;;
39918;SDS011;25589;51.552;13.424;2022-12-07T05:30:53;16.17;;;9.60;;
39918;SDS011;25589;51.552;13.424;2022-12-07T05:33:19;15.82;;;9.93;;
39918;SDS011;25589;51.552;13.424;2022-12-07T05:35:44;16.45;;;8.70;;
39918;SDS011;25589;51.552;13.424;2022-12-07T05:38:10;16.48;;;9.90;;
39918;SDS011;25589;51.552;13.424;2022-12-07T05:40:36;18.35;;;8.77;;
39918;SDS011;25589;51.552;13.424;2022-12-07T05:43:02;15.00;;;8.63;;
39918;SDS011;25589;51.552;13.424;2022-12-07T05:45:27;13.68;;;8.43;;
39918;SDS011;25589;51.552;13.424;2022-12-07T05:47:53;14.15;;;8.35;;
39918;SDS011;25589;51.552;13.424;2022-12-07T05:50:18;13.13;;;7.78;;
39918;SDS011;25589;51.552;13.424;2022-12-07T05:52:58;15.30;;;9.13;;
39918;SDS011;25589;51.552;13.424;2022-12-07T05:55:24;14.25;;;8.32;;
39918;SDS011;25589;51.552;13.424;2022-12-07T05:57:50;13.80;;;8.48;;
39918;SDS011;25589;51.552;13.424;2022-12-07T06:00:34;16.95;;;9.88;;
39918;SDS011;25589;51.552;13.424;2022-12-07T06:03:00;13.40;;;8.18;;
39918;SDS011;25589;51.552;13.424;2022-12-07T06:05:25;13.15;;;7.60;;
39918;SDS011;25589;51.552;13.424;2022-12-07T06:07:51;13.38;;;8.57;;
39918;SDS011;25589;51.552;13.424;2022-12-07T06:10:16;11.93;;;7.60;;
39918;SDS011;25589;51.552;13.424;2022-12-07T06:12:42;13.38;;;8.55;;
39918;SDS011;25589;51.552;13.424;2022-12-07T06:15:08;13.88;;;7.50;;
39918;SDS011;25589;51.552;13.424;2022-12-07T06:17:35;15.63;;;7.82;;
39918;SDS011;25589;51.552;13.424;2022-12-07T06:20:02;12.93;;;7.30;;
39918;SDS011;25589;51.552;13.424;2022-12-07T06:22:28;17.92;;;8.20;;
39918;SDS011;25589;51.552;13.424;2022-12-07T06:24:53;12.02;;;7.50;;
39918;SDS011;25589;51.552;13.424;2022-12-07T06:27:19;12.27;;;8.48;;
39918;SDS011;25589;51.552;13.424;2022-12-07T06:29:44;14.75;;;9.45;;
39918;SDS011;25589;51.552;13.424;2022-12-07T06:32:10;14.77;;;7.88;;
39918;SDS011;25589;51.552;13.424;2022-12-07T06:34:36;14.50;;;9.38;;
39918;SDS011;25589;51.552;13.424;2022-12-07T06:37:02;12.63;;;8.25;;
39918;SDS011;25589;51.552;13.424;2022-12-07T06:39:28;13.10;;;7.50;;
39918;SDS011;25589;51.552;13.424;2022-12-07T06:41:54;12.07;;;8.02;;
39918;SDS011;25589;51.552;13.424;2022-12-07T06:44:20;17.27;;;10.45;;
39918;SDS011;25589;51.552;13.424;2022-12-07T06:46:47;47.55;;;22.40;;
39918;SDS011;25589;51.552;13.424;2022-12-07T06:49:13;30.02;;;16.08;;
39918;SDS011;25589;51.552;13.424;2022-12-07T06:51:39;47.65;;;26.02;;
39918;SDS011;25589;51.552;13.424;2022-12-07T06:54:06;11.60;;;8.20;;
39918;SDS011;25589;51.552;13.424;2022-12-07T06:56:33;12.68;;;8.10;;
39918;SDS011;25589;51.552;13.424;2022-12-07T06:58:59;10.43;;;6.95;;
39918;SDS011;25589;51.552;13.424;2022-12-07T07:01:24;10.75;;;7.30;;
39918;SDS011;25589;51.552;13.424;2022-12-07T07:03:50;12.73;;;8.10;;
39918;SDS011;25589;51.552;13.424;2022-12-07T07:06:15;13.90;;;8.20;;
39918;SDS011;25589;51.552;13.424;2022-12-07T07:08:41;13.63;;;8.07;;
39918;SDS011;25589;51.552;13.424;2022-12-07T07:11:07;14.52;;;10.18;;
39918;SDS011;25589;51.552;13.424;2022-12-07T07:13:33;24.48;;;13.88;;
39918;SDS011;25589;51.552;13.424;2022-12-07T07:15:59;18.63;;;12.18;;
39918;SDS011;25589;51.552;13.424;2022-12-07T07:18:25;14.05;;;9.20;;
39918;SDS011;25589;51.552;13.424;2022-12-07T07:20:51;14.93;;;8.50;;
39918;SDS011;25589;51.552;13.424;2022-12-07T07:23:17;16.17;;;10.38;;
39918;SDS011;25589;51.552;13.424;2022-12-07T07:25:44;21.58;;;13.18;;
39918;SDS011;25589;51.552;13.424;2022-12-07T07:28:10;30.35;;;17.98;;
39918;SDS011;25589;51.552;13.424;2022-12-07T07:30:35;33.75;;;19.08;;
39918;SDS011;25589;51.552;13.424;2022-12-07T07:33:02;17.50;;;10.75;;
39918;SDS011;25589;51.552;13.424;2022-12-07T07:35:29;30.70;;;16.83;;
39918;SDS011;25589;51.552;13.424;2022-12-07T07:37:56;34.67;;;20.55;;
39918;SDS011;25589;51.552;13.424;2022-12-07T07:40:22;12.55;;;8.13;;
39918;SDS011;25589;51.552;13.424;2022-12-07T07:42:49;13.82;;;8.18;;
39918;SDS011;25589;51.552;13.424;2022-12-07T07:45:15;14.45;;;9.00;;
39918;SDS011;25589;51.552;13.424;2022-12-07T07:47:41;14.05;;;8.70;;
39918;SDS011;25589;51.552;13.424;2022-12-07T07:50:07;17.55;;;10.32;;
39918;SDS011;25589;51.552;13.424;2022-12-07T07:52:33;25.30;;;13.68;;
39918;SDS011;25589;51.552;13.424;2022-12-07T07:54:58;22.65;;;12.77;;
39918;SDS011;25589;51.552;13.424;2022-12-07T07:57:24;13.18;;;8.45;;
39918;SDS011;25589;51.552;13.424;2022-12-07T07:59:50;10.82;;;6.78;;
39918;SDS011;25589;51.552;13.424;2022-12-07T08:02:16;12.85;;;8.88;;
39918;SDS011;25589;51.552;13.424;2022-12-07T08:04:43;13.45;;;8.68;;
39918;SDS011;25589;51.552;13.424;2022-12-07T08:07:09;19.80;;;11.40;;
39918;SDS011;25589;51.552;13.424;2022-12-07T08:09:35;23.02;;;12.98;;
39918;SDS011;25589;51.552;13.424;2022-12-07T08:12:01;14.38;;;8.43;;
39918;SDS011;25589;51.552;13.424;2022-12-07T08:14:26;12.70;;;7.93;;
39918;SDS011;25589;51.552;13.424;2022-12-07T08:16:53;13.75;;;7.80;;
39918;SDS011;25589;51.552;13.424;2022-12-07T08:19:19;12.30;;;7.93;;
39918;SDS011;25589;51.552;13.424;2022-12-07T08:21:45;19.20;;;10.30;;
39918;SDS011;25589;51.552;13.424;2022-12-07T08:24:10;13.13;;;7.93;;
39918;SDS011;25589;51.552;13.424;2022-12-07T08:26:36;15.02;;;7.97;;
39918;SDS011;25589;51.552;13.424;2022-12-07T08:29:01;13.95;;;8.13;;
39918;SDS011;25589;51.552;13.424;2022-12-07T08:31:27;14.00;;;7.97;;
39918;SDS011;25589;51.552;13.424;2022-12-07T08:33:53;13.48;;;8.10;;
39918;SDS011;25589;51.552;13.424;2022-12-07T08:36:20;14.32;;;7.60;;
39918;SDS011;25589;51.552;13.424;2022-12-07T08:38:47;13.60;;;8.15;;
39918;SDS011;25589;51.552;13.424;2022-12-07T08:41:13;14.40;;;7.65;;
39918;SDS011;25589;51.552;13.424;2022-12-07T08:43:39;11.40;;;7.35;;
39918;SDS011;25589;51.552;13.424;2022-12-07T08:49:02;14.55;;;7.88;;
39918;SDS011;25589;51.552;13.424;2022-12-07T08:51:29;12.25;;;8.13;;
39918;SDS011;25589;51.552;13.424;2022-12-07T08:53:55;11.38;;;7.53;;
39918;SDS011;25589;51.552;13.424;2022-12-07T08:56:23;13.52;;;7.20;;
39918;SDS011;25589;51.552;13.424;2022-12-07T08:58:49;10.27;;;6.97;;
39918;SDS011;25589;51.552;13.424;2022-12-07T09:01:15;11.07;;;6.88;;
39918;SDS011;25589;51.552;13.424;2022-12-07T09:03:40;11.98;;;7.65;;
39918;SDS011;25589;51.552;13.424;2022-12-07T09:06:06;13.07;;;7.38;;
39918;SDS011;25589;51.552;13.424;2022-12-07T09:08:33;13.57;;;7.53;;
39918;SDS011;25589;51.552;13.424;2022-12-07T09:11:04;13.32;;;8.20;;
39918;SDS011;25589;51.552;13.424;2022-12-07T09:13:29;12.27;;;7.18;;
39918;SDS011;25589;51.552;13.424;2022-12-07T09:15:55;13.52;;;7.30;;
39918;SDS011;25589;51.552;13.424;2022-12-07T09:18:21;11.70;;;6.90;;
39918;SDS011;25589;51.552;13.424;2022-12-07T09:20:46;11.60;;;7.22;;
39918;SDS011;25589;51.552;13.424;2022-12-07T09:23:12;9.82;;;6.68;;
39918;SDS011;25589;51.552;13.424;2022-12-07T09:25:37;10.65;;;7.07;;
39918;SDS011;25589;51.552;13.424;2022-12-07T09:28:03;14.20;;;7.55;;
39918;SDS011;25589;51.552;13.424;2022-12-07T09:30:29;10.38;;;7.47;;
39918;SDS011;25589;51.552;13.424;2022-12-07T09:32:57;19.90;;;6.95;;
39918;SDS011;25589;51.552;13.424;2022-12-07T09:35:23;12.40;;;7.63;;
39918;SDS011;25589;51.552;13.424;2022-12-07T09:37:49;14.05;;;7.28;;
39918;SDS011;25589;51.552;13.424;2022-12-07T09:40:15;10.48;;;7.65;;
39918;SDS011;25589;51.552;13.424;2022-12-07T09:42:43;12.68;;;7.35;;
39918;SDS011;25589;51.552;13.424;2022-12-07T09:45:14;12.10;;;7.88;;
39918;SDS011;25589;51.552;13.424;2022-12-07T09:47:42;11.50;;;7.43;;
39918;SDS011;25589;51.552;13.424;2022-12-07T09:50:12;9.32;;;6.47;;
39918;SDS011;25589;51.552;13.424;2022-12-07T09:52:40;12.30;;;7.38;;
39918;SDS011;25589;51.552;13.424;2022-12-07T09:55:09;14.13;;;7.03;;
39918;SDS011;25589;51.552;13.424;2022-12-07T09:57:40;9.15;;;6.63;;
39918;SDS011;25589;51.552;13.424;2022-12-07T10:00:10;15.50;;;8.13;;
39918;SDS011;25589;51.552;13.424;2022-12-07T10:02:40;10.10;;;6.18;;
39918;SDS011;25589;51.552;13.424;2022-12-07T10:05:12;10.30;;;6.60;;
39918;SDS011;25589;51.552;13.424;2022-12-07T10:07:40;11.73;;;6.50;;
39918;SDS011;25589;51.552;13.424;2022-12-07T10:10:09;9.50;;;6.35;;
39918;SDS011;25589;51.552;13.424;2022-12-07T10:12:55;10.70;;;6.38;;
39918;SDS011;25589;51.552;13.424;2022-12-07T10:15:23;9.77;;;6.40;;
39918;SDS011;25589;51.552;13.424;2022-12-07T10:18:13;11.73;;;6.50;;
39918;SDS011;25589;51.552;13.424;2022-12-07T10:21:00;8.50;;;6.10;;
39918;SDS011;25589;51.552;13.424;2022-12-07T10:23:27;12.77;;;6.40;;
39918;SDS011;25589;51.552;13.424;2022-12-07T10:25:52;11.80;;;6.40;;
39918;SDS011;25589;51.552;13.424;2022-12-07T10:28:20;15.27;;;6.75;;
39918;SDS011;25589;51.552;13.424;2022-12-07T10:36:00;9.13;;;5.68;;
39918;SDS011;25589;51.552;13.424;2022-12-07T10:38:43;9.23;;;6.30;;
39918;SDS011;25589;51.552;13.424;2022-12-07T10:41:12;8.40;;;5.93;;
39918;SDS011;25589;51.552;13.424;2022-12-07T10:43:37;11.15;;;6.32;;
39918;SDS011;25589;51.552;13.424;2022-12-07T10:51:38;10.20;;;6.15;;
39918;SDS011;25589;51.552;13.424;2022-12-07T11:00:15;5.22;;;3.25;;
39918;SDS011;25589;51.552;13.424;2022-12-07T11:02:45;5.57;;;3.38;;
39918;SDS011;25589;51.552;13.424;2022-12-07T11:05:35;3.00;;;2.65;;
39918;SDS011;25589;51.552;13.424;2022-12-07T11:11:27;4.55;;;2.80;;
39918;SDS011;25589;51.552;13.424;2022-12-07T11:14:13;4.38;;;2.47;;
39918;SDS011;25589;51.552;13.424;2022-12-07T11:16:58;1.73;;;1.60;;
39918;SDS011;25589;51.552;13.424;2022-12-07T11:19:40;2.78;;;1.92;;
39918;SDS011;25589;51.552;13.424;2022-12-07T11:27:51;2.10;;;1.83;;
39918;SDS011;25589;51.552;13.424;2022-12-07T11:30:34;1.95;;;1.38;;
39918;SDS011;25589;51.552;13.424;2022-12-07T11:33:07;1.45;;;1.30;;
39918;SDS011;25589;51.552;13.424;2022-12-07T11:35:50;1.75;;;1.55;;
39918;SDS011;25589;51.552;13.424;2022-12-07T11:38:22;2.70;;;1.63;;
39918;SDS011;25589;51.552;13.424;2022-12-07T11:40:54;1.77;;;1.50;;
39918;SDS011;25589;51.552;13.424;2022-12-07T11:43:37;4.22;;;1.42;;
39918;SDS011;25589;51.552;13.424;2022-12-07T11:46:15;3.85;;;1.30;;
39918;SDS011;25589;51.552;13.424;2022-12-07T11:48:43;1.45;;;1.30;;
39918;SDS011;25589;51.552;13.424;2022-12-07T11:51:23;1.77;;;1.58;;
39918;SDS011;25589;51.552;13.424;2022-12-07T11:56:19;2.80;;;1.70;;
39918;SDS011;25589;51.552;13.424;2022-12-07T11:59:04;2.50;;;1.67;;
39918;SDS011;25589;51.552;13.424;2022-12-07T12:01:47;1.48;;;1.38;;
39918;SDS011;25589;51.552;13.424;2022-12-07T12:04:22;1.83;;;1.45;;
39918;SDS011;25589;51.552;13.424;2022-12-07T12:07:05;2.33;;;1.75;;
39918;SDS011;25589;51.552;13.424;2022-12-07T12:09:36;2.17;;;1.60;;
39918;SDS011;25589;51.552;13.424;2022-12-07T12:23:06;2.63;;;1.88;;
39918;SDS011;25589;51.552;13.424;2022-12-07T12:25:50;2.08;;;1.85;;
39918;SDS011;25589;51.552;13.424;2022-12-07T12:28:28;2.65;;;1.60;;
39918;SDS011;25589;51.552;13.424;2022-12-07T12:31:11;2.75;;;2.17;;
39918;SDS011;25589;51.552;13.424;2022-12-07T12:33:44;3.40;;;2.90;;
39918;SDS011;25589;51.552;13.424;2022-12-07T12:38:49;6.30;;;3.88;;
39918;SDS011;25589;51.552;13.424;2022-12-07T12:44:00;6.57;;;4.43;;
39918;SDS011;25589;51.552;13.424;2022-12-07T12:48:55;6.40;;;4.43;;
39918;SDS011;25589;51.552;13.424;2022-12-07T12:51:40;8.70;;;5.18;;
39918;SDS011;25589;51.552;13.424;2022-12-07T12:54:11;7.22;;;5.20;;
39918;SDS011;25589;51.552;13.424;2022-12-07T13:02:20;9.32;;;5.00;;
39918;SDS011;25589;51.552;13.424;2022-12-07T13:04:55;6.65;;;5.20;;
39918;SDS011;25589;51.552;13.424;2022-12-07T13:15:43;8.00;;;4.60;;
39918;SDS011;25589;51.552;13.424;2022-12-07T13:20:53;8.30;;;4.72;;
39918;SDS011;25589;51.552;13.424;2022-12-07T13:23:35;8.77;;;4.72;;
39918;SDS011;25589;51.552;13.424;2022-12-07T13:26:15;8.50;;;5.18;;
39918;SDS011;25589;51.552;13.424;2022-12-07T13:28:42;6.40;;;4.93;;
39918;SDS011;25589;51.552;13.424;2022-12-07T13:34:02;8.45;;;5.00;;
39918;SDS011;25589;51.552;13.424;2022-12-07T13:36:30;9.07;;;5.07;;
39918;SDS011;25589;51.552;13.424;2022-12-07T13:39:10;8.05;;;5.30;;
39918;SDS011;25589;51.552;13.424;2022-12-07T13:41:41;5.75;;;4.63;;
39918;SDS011;25589;51.552;13.424;2022-12-07T13:44:17;7.00;;;4.95;;
39918;SDS011;25589;51.552;13.424;2022-12-07T13:46:51;7.70;;;4.13;;
39918;SDS011;25589;51.552;13.424;2022-12-07T13:49:25;7.05;;;4.38;;
39918;SDS011;25589;51.552;13.424;2022-12-07T13:52:08;10.48;;;5.50;;
39918;SDS011;25589;51.552;13.424;2022-12-07T13:57:29;9.75;;;5.30;;
39918;SDS011;25589;51.552;13.424;2022-12-07T13:59:56;9.40;;;5.95;;
39918;SDS011;25589;51.552;13.424;2022-12-07T14:02:27;7.88;;;5.90;;
39918;SDS011;25589;51.552;13.424;2022-12-07T14:05:07;8.00;;;5.67;;
39918;SDS011;25589;51.552;13.424;2022-12-07T14:07:35;11.75;;;7.82;;
39918;SDS011;25589;51.552;13.424;2022-12-07T14:10:05;11.57;;;7.22;;
39918;SDS011;25589;51.552;13.424;2022-12-07T14:12:32;11.45;;;7.22;;
39918;SDS011;25589;51.552;13.424;2022-12-07T14:15:02;13.05;;;7.88;;
39918;SDS011;25589;51.552;13.424;2022-12-07T14:17:28;10.73;;;7.57;;
39918;SDS011;25589;51.552;13.424;2022-12-07T14:19:55;9.35;;;6.68;;
39918;SDS011;25589;51.552;13.424;2022-12-07T14:22:26;12.27;;;7.63;;
39918;SDS011;25589;51.552;13.424;2022-12-07T14:24:59;13.38;;;8.32;;
39918;SDS011;25589;51.552;13.424;2022-12-07T14:27:30;10.40;;;7.97;;
39918;SDS011;25589;51.552;13.424;2022-12-07T14:29:59;13.43;;;7.38;;
39918;SDS011;25589;51.552;13.424;2022-12-07T14:32:26;10.75;;;6.97;;
39918;SDS011;25589;51.552;13.424;2022-12-07T14:35:01;10.63;;;6.80;;
39918;SDS011;25589;51.552;13.424;2022-12-07T14:37:27;8.73;;;6.57;;
39918;SDS011;25589;51.552;13.424;2022-12-07T14:39:53;9.15;;;6.50;;
39918;SDS011;25589;51.552;13.424;2022-12-07T14:42:19;9.70;;;5.78;;
39918;SDS011;25589;51.552;13.424;2022-12-07T14:44:45;10.77;;;5.35;;
39918;SDS011;25589;51.552;13.424;2022-12-07T14:47:11;7.85;;;5.40;;
39918;SDS011;25589;51.552;13.424;2022-12-07T14:49:37;7.60;;;5.68;;
39918;SDS011;25589;51.552;13.424;2022-12-07T14:52:03;10.18;;;5.97;;
39918;SDS011;25589;51.552;13.424;2022-12-07T14:54:31;7.60;;;4.85;;
39918;SDS011;25589;51.552;13.424;2022-12-07T14:56:57;8.23;;;5.10;;
39918;SDS011;25589;51.552;13.424;2022-12-07T14:59:23;8.05;;;5.45;;
39918;SDS011;25589;51.552;13.424;2022-12-07T15:01:48;8.70;;;5.00;;
39918;SDS011;25589;51.552;13.424;2022-12-07T15:04:14;6.32;;;5.00;;
39918;SDS011;25589;51.552;13.424;2022-12-07T15:06:40;9.15;;;5.32;;
39918;SDS011;25589;51.552;13.424;2022-12-07T15:09:08;5.45;;;4.30;;
39918;SDS011;25589;51.552;13.424;2022-12-07T15:11:36;35.88;;;14.40;;
39918;SDS011;25589;51.552;13.424;2022-12-07T15:14:01;13.25;;;6.70;;
39918;SDS011;25589;51.552;13.424;2022-12-07T15:16:33;13.27;;;6.20;;
39918;SDS011;25589;51.552;13.424;2022-12-07T15:18:59;8.20;;;4.97;;
39918;SDS011;25589;51.552;13.424;2022-12-07T15:21:24;5.80;;;4.32;;
39918;SDS011;25589;51.552;13.424;2022-12-07T15:23:50;5.90;;;4.50;;
39918;SDS011;25589;51.552;13.424;2022-12-07T15:26:16;5.63;;;4.70;;
39918;SDS011;25589;51.552;13.424;2022-12-07T15:28:42;6.80;;;5.05;;
39918;SDS011;25589;51.552;13.424;2022-12-07T15:31:11;9.88;;;5.50;;
39918;SDS011;25589;51.552;13.424;2022-12-07T15:33:38;7.45;;;5.45;;
39918;SDS011;25589;51.552;13.424;2022-12-07T15:36:04;6.75;;;5.10;;
39918;SDS011;25589;51.552;13.424;2022-12-07T15:38:30;6.90;;;5.13;;
39918;SDS011;25589;51.552;13.424;2022-12-07T15:40:55;13.07;;;8.02;;
39918;SDS011;25589;51.552;13.424;2022-12-07T15:43:22;12.75;;;8.40;;
39918;SDS011;25589;51.552;13.424;2022-12-07T15:46:06;19.55;;;8.70;;
39918;SDS011;25589;51.552;13.424;2022-12-07T15:48:32;7.32;;;5.28;;
39918;SDS011;25589;51.552;13.424;2022-12-07T15:51:02;8.60;;;4.88;;
39918;SDS011;25589;51.552;13.424;2022-12-07T15:53:29;6.28;;;4.78;;
39918;SDS011;25589;51.552;13.424;2022-12-07T15:55:54;13.15;;;9.00;;
39918;SDS011;25589;51.552;13.424;2022-12-07T15:58:20;11.32;;;6.85;;
39918;SDS011;25589;51.552;13.424;2022-12-07T16:00:45;12.82;;;7.40;;
39918;SDS011;25589;51.552;13.424;2022-12-07T16:03:13;9.05;;;5.18;;
39918;SDS011;25589;51.552;13.424;2022-12-07T16:05:38;7.10;;;4.85;;
39918;SDS011;25589;51.552;13.424;2022-12-07T16:08:04;15.85;;;5.03;;
39918;SDS011;25589;51.552;13.424;2022-12-07T16:10:30;8.18;;;4.32;;